sensor_id;sensor_type;location;lat;lon;timestamp;pressure;altitude;pressure_sealevel;temperature;humidity
26978;BME280;56314;48.088;11.642;2023-03-18T00:02:06;95017.50;;;6.07;82.00
26978;BME280;56314;48.088;11.642;2023-03-18T00:04:32;95024.41;;;6.21;82.03
26978;BME280;56314;48.088;11.642;2023-03-18T00:06:57;95014.72;;;6.23;81.17
26978;BME280;56314;48.088;11.642;2023-03-18T00:09:23;95027.38;;;6.29;81.27
26978;BME280;56314;48.088;11.642;2023-03-18T00:11:48;95024.75;;;6.29;81.20
26978;BME280;56314;48.088;11.642;2023-03-18T00:14:21;95028.19;;;6.29;81.49
26978;BME280;56314;48.088;11.642;2023-03-18T00:16:48;95028.81;;;6.33;81.33
26978;BME280;56314;48.088;11.642;2023-03-18T00:19:16;95034.13;;;6.31;81.29
26978;BME280;56314;48.088;11.642;2023-03-18T00:21:42;95030.78;;;6.29;80.97
26978;BME280;56314;48.088;11.642;2023-03-18T00:24:10;95033.09;;;6.34;81.37
26978;BME280;56314;48.088;11.642;2023-03-18T00:26:36;95036.75;;;6.31;80.93
26978;BME280;56314;48.088;11.642;2023-03-18T00:29:03;95031.09;;;6.25;81.27
26978;BME280;56314;48.088;11.642;2023-03-18T00:31:28;95043.75;;;6.31;80.86
26978;BME280;56314;48.088;11.642;2023-03-18T00:33:57;95050.91;;;6.27;81.13
26978;BME280;56314;48.088;11.642;2023-03-18T00:36:24;95044.13;;;6.25;80.79
26978;BME280;56314;48.088;11.642;2023-03-18T00:38:52;95048.31;;;6.27;81.53
26978;BME280;56314;48.088;11.642;2023-03-18T00:41:31;95044.47;;;6.33;81.45
26978;BME280;56314;48.088;11.642;2023-03-18T00:44:12;95041.28;;;6.42;80.87
26978;BME280;56314;48.088;11.642;2023-03-18T00:46:39;95050.78;;;6.56;80.95
26978;BME280;56314;48.088;11.642;2023-03-18T00:49:06;95048.47;;;6.65;79.08
26978;BME280;56314;48.088;11.642;2023-03-18T00:51:36;95049.53;;;6.62;78.39
26978;BME280;56314;48.088;11.642;2023-03-18T00:54:06;95044.19;;;6.51;78.02
26978;BME280;56314;48.088;11.642;2023-03-18T00:56:33;95051.09;;;6.52;78.24
26978;BME280;56314;48.088;11.642;2023-03-18T00:59:03;95050.34;;;6.50;78.61
26978;BME280;56314;48.088;11.642;2023-03-18T01:01:34;95053.16;;;6.46;78.43
26978;BME280;56314;48.088;11.642;2023-03-18T01:04:00;95054.00;;;6.47;78.18
26978;BME280;56314;48.088;11.642;2023-03-18T01:06:28;95064.50;;;6.32;78.29
26978;BME280;56314;48.088;11.642;2023-03-18T01:08:54;95060.72;;;6.24;78.61
26978;BME280;56314;48.088;11.642;2023-03-18T01:11:23;95059.47;;;6.29;78.39
26978;BME280;56314;48.088;11.642;2023-03-18T01:13:49;95058.03;;;6.25;78.54
26978;BME280;56314;48.088;11.642;2023-03-18T01:16:17;95051.34;;;6.21;78.63
26978;BME280;56314;48.088;11.642;2023-03-18T01:18:52;95053.09;;;6.21;78.82
26978;BME280;56314;48.088;11.642;2023-03-18T01:21:18;95061.31;;;6.14;78.80
26978;BME280;56314;48.088;11.642;2023-03-18T01:23:44;95050.91;;;6.14;78.68
26978;BME280;56314;48.088;11.642;2023-03-18T01:26:09;95055.19;;;6.15;78.44
26978;BME280;56314;48.088;11.642;2023-03-18T01:28:38;95056.06;;;6.29;78.41
26978;BME280;56314;48.088;11.642;2023-03-18T01:31:06;95048.53;;;6.24;78.04
26978;BME280;56314;48.088;11.642;2023-03-18T01:33:32;95053.38;;;6.16;78.96
26978;BME280;56314;48.088;11.642;2023-03-18T01:36:01;95044.56;;;6.19;78.57
26978;BME280;56314;48.088;11.642;2023-03-18T01:38:32;95047.25;;;6.17;79.17
26978;BME280;56314;48.088;11.642;2023-03-18T01:40:59;95041.50;;;6.12;79.42
26978;BME280;56314;48.088;11.642;2023-03-18T01:43:28;95046.41;;;6.16;79.22
26978;BME280;56314;48.088;11.642;2023-03-18T01:48:54;95051.66;;;6.29;77.88
26978;BME280;56314;48.088;11.642;2023-03-18T01:51:20;95057.72;;;6.30;77.62
26978;BME280;56314;48.088;11.642;2023-03-18T01:53:48;95061.03;;;6.19;78.17
26978;BME280;56314;48.088;11.642;2023-03-18T01:56:14;95057.69;;;6.17;78.46
26978;BME280;56314;48.088;11.642;2023-03-18T01:58:50;95070.28;;;6.10;78.54
26978;BME280;56314;48.088;11.642;2023-03-18T02:01:28;95068.69;;;6.08;78.92
26978;BME280;56314;48.088;11.642;2023-03-18T02:03:56;95068.06;;;6.04;79.38
26978;BME280;56314;48.088;11.642;2023-03-18T02:06:25;95067.03;;;6.07;79.28
26978;BME280;56314;48.088;11.642;2023-03-18T02:08:50;95063.88;;;6.01;79.11
26978;BME280;56314;48.088;11.642;2023-03-18T02:11:19;95065.75;;;5.99;78.89
26978;BME280;56314;48.088;11.642;2023-03-18T02:13:47;95067.88;;;6.07;78.79
26978;BME280;56314;48.088;11.642;2023-03-18T02:16:18;95065.34;;;6.06;78.45
26978;BME280;56314;48.088;11.642;2023-03-18T02:18:51;95063.88;;;6.01;78.70
26978;BME280;56314;48.088;11.642;2023-03-18T02:21:53;95068.50;;;6.11;78.58
26978;BME280;56314;48.088;11.642;2023-03-18T02:24:35;95070.75;;;6.03;78.82
26978;BME280;56314;48.088;11.642;2023-03-18T02:27:24;95069.00;;;6.03;79.18
26978;BME280;56314;48.088;11.642;2023-03-18T02:29:53;95078.03;;;5.97;79.54
26978;BME280;56314;48.088;11.642;2023-03-18T02:32:25;95073.00;;;5.94;79.79
26978;BME280;56314;48.088;11.642;2023-03-18T02:35:00;95074.34;;;5.87;79.92
26978;BME280;56314;48.088;11.642;2023-03-18T02:37:29;95073.00;;;5.94;79.74
26978;BME280;56314;48.088;11.642;2023-03-18T02:40:18;95075.06;;;5.89;79.74
26978;BME280;56314;48.088;11.642;2023-03-18T02:42:45;95079.25;;;5.92;79.70
26978;BME280;56314;48.088;11.642;2023-03-18T02:45:29;95086.22;;;5.91;79.52
26978;BME280;56314;48.088;11.642;2023-03-18T02:47:58;95079.88;;;5.95;80.07
26978;BME280;56314;48.088;11.642;2023-03-18T02:50:26;95081.56;;;5.96;80.06
26978;BME280;56314;48.088;11.642;2023-03-18T02:52:52;95082.31;;;5.98;79.34
26978;BME280;56314;48.088;11.642;2023-03-18T02:55:17;95089.38;;;5.96;79.53
26978;BME280;56314;48.088;11.642;2023-03-18T02:57:45;95098.94;;;5.96;79.57
26978;BME280;56314;48.088;11.642;2023-03-18T03:00:13;95093.75;;;5.96;79.68
26978;BME280;56314;48.088;11.642;2023-03-18T03:02:40;95087.72;;;5.95;79.91
26978;BME280;56314;48.088;11.642;2023-03-18T03:05:06;95091.34;;;5.93;79.69
26978;BME280;56314;48.088;11.642;2023-03-18T03:07:33;95098.94;;;5.96;79.49
26978;BME280;56314;48.088;11.642;2023-03-18T03:09:59;95107.91;;;5.92;79.93
26978;BME280;56314;48.088;11.642;2023-03-18T03:12:27;95102.31;;;5.98;79.49
26978;BME280;56314;48.088;11.642;2023-03-18T03:14:53;95109.47;;;6.09;78.85
26978;BME280;56314;48.088;11.642;2023-03-18T03:17:21;95116.97;;;6.00;79.34
26978;BME280;56314;48.088;11.642;2023-03-18T03:19:53;95115.09;;;5.88;79.55
26978;BME280;56314;48.088;11.642;2023-03-18T03:22:18;95120.56;;;5.83;79.79
26978;BME280;56314;48.088;11.642;2023-03-18T03:24:44;95124.63;;;5.75;80.03
26978;BME280;56314;48.088;11.642;2023-03-18T03:27:12;95121.78;;;5.78;80.56
26978;BME280;56314;48.088;11.642;2023-03-18T03:29:40;95128.16;;;5.74;80.93
26978;BME280;56314;48.088;11.642;2023-03-18T03:32:11;95132.91;;;5.67;81.25
26978;BME280;56314;48.088;11.642;2023-03-18T03:34:37;95132.97;;;5.65;81.18
26978;BME280;56314;48.088;11.642;2023-03-18T03:37:14;95136.44;;;5.66;81.20
26978;BME280;56314;48.088;11.642;2023-03-18T03:39:43;95130.31;;;5.67;81.46
26978;BME280;56314;48.088;11.642;2023-03-18T03:42:09;95132.63;;;5.72;80.74
26978;BME280;56314;48.088;11.642;2023-03-18T03:44:35;95142.84;;;5.75;80.52
26978;BME280;56314;48.088;11.642;2023-03-18T03:47:03;95141.19;;;5.74;80.74
26978;BME280;56314;48.088;11.642;2023-03-18T03:49:28;95137.66;;;5.75;80.53
26978;BME280;56314;48.088;11.642;2023-03-18T03:51:56;95134.66;;;5.66;80.74
26978;BME280;56314;48.088;11.642;2023-03-18T03:54:26;95133.66;;;5.69;81.12
26978;BME280;56314;48.088;11.642;2023-03-18T03:56:54;95129.25;;;5.69;81.30
26978;BME280;56314;48.088;11.642;2023-03-18T03:59:20;95140.88;;;5.78;80.61
26978;BME280;56314;48.088;11.642;2023-03-18T04:01:45;95142.94;;;5.73;80.60
26978;BME280;56314;48.088;11.642;2023-03-18T04:04:11;95137.34;;;5.79;80.34
26978;BME280;56314;48.088;11.642;2023-03-18T04:06:40;95144.69;;;5.87;79.41
26978;BME280;56314;48.088;11.642;2023-03-18T04:09:05;95138.56;;;5.88;78.64
26978;BME280;56314;48.088;11.642;2023-03-18T04:11:31;95145.41;;;6.04;78.81
26978;BME280;56314;48.088;11.642;2023-03-18T04:13:56;95149.63;;;5.92;78.90
26978;BME280;56314;48.088;11.642;2023-03-18T04:16:21;95146.44;;;5.86;79.21
26978;BME280;56314;48.088;11.642;2023-03-18T04:18:47;95146.56;;;5.85;79.77
26978;BME280;56314;48.088;11.642;2023-03-18T04:21:12;95145.00;;;5.82;79.76
26978;BME280;56314;48.088;11.642;2023-03-18T04:23:38;95153.06;;;5.78;79.38
26978;BME280;56314;48.088;11.642;2023-03-18T04:26:05;95143.59;;;5.77;79.40
26978;BME280;56314;48.088;11.642;2023-03-18T04:28:30;95150.28;;;5.81;79.43
26978;BME280;56314;48.088;11.642;2023-03-18T04:30:57;95151.13;;;5.81;80.01
26978;BME280;56314;48.088;11.642;2023-03-18T04:33:22;95151.31;;;5.78;79.40
26978;BME280;56314;48.088;11.642;2023-03-18T04:35:48;95153.06;;;5.78;79.88
26978;BME280;56314;48.088;11.642;2023-03-18T04:38:13;95155.13;;;5.73;79.85
26978;BME280;56314;48.088;11.642;2023-03-18T04:40:39;95155.03;;;5.74;79.47
26978;BME280;56314;48.088;11.642;2023-03-18T04:43:04;95162.56;;;5.79;79.35
26978;BME280;56314;48.088;11.642;2023-03-18T04:45:29;95150.84;;;5.72;79.74
26978;BME280;56314;48.088;11.642;2023-03-18T04:47:55;95157.75;;;5.73;79.41
26978;BME280;56314;48.088;11.642;2023-03-18T04:50:20;95156.16;;;5.70;79.50
26978;BME280;56314;48.088;11.642;2023-03-18T04:52:46;95158.94;;;5.67;79.22
26978;BME280;56314;48.088;11.642;2023-03-18T04:55:12;95162.09;;;5.72;77.92
26978;BME280;56314;48.088;11.642;2023-03-18T04:57:40;95160.72;;;5.66;78.74
26978;BME280;56314;48.088;11.642;2023-03-18T05:00:08;95157.28;;;5.66;78.33
26978;BME280;56314;48.088;11.642;2023-03-18T05:02:35;95151.97;;;5.67;78.83
26978;BME280;56314;48.088;11.642;2023-03-18T05:05:01;95149.34;;;5.67;79.37
26978;BME280;56314;48.088;11.642;2023-03-18T05:07:26;95149.19;;;5.70;79.80
26978;BME280;56314;48.088;11.642;2023-03-18T05:09:52;95153.75;;;5.67;79.87
26978;BME280;56314;48.088;11.642;2023-03-18T05:12:17;95147.59;;;5.68;78.80
26978;BME280;56314;48.088;11.642;2023-03-18T05:14:43;95147.31;;;5.73;76.06
26978;BME280;56314;48.088;11.642;2023-03-18T05:17:09;95152.25;;;5.77;74.95
26978;BME280;56314;48.088;11.642;2023-03-18T05:19:41;95147.59;;;5.82;76.08
26978;BME280;56314;48.088;11.642;2023-03-18T05:22:07;95148.47;;;5.96;77.24
26978;BME280;56314;48.088;11.642;2023-03-18T05:24:32;95158.38;;;5.91;77.42
26978;BME280;56314;48.088;11.642;2023-03-18T05:26:58;95162.19;;;5.85;77.15
26978;BME280;56314;48.088;11.642;2023-03-18T05:29:24;95155.13;;;5.87;77.47
26978;BME280;56314;48.088;11.642;2023-03-18T05:31:49;95153.25;;;5.89;77.58
26978;BME280;56314;48.088;11.642;2023-03-18T05:34:14;95164.78;;;5.85;76.73
26978;BME280;56314;48.088;11.642;2023-03-18T05:36:40;95156.78;;;5.88;77.12
26978;BME280;56314;48.088;11.642;2023-03-18T05:39:05;95162.94;;;5.87;77.79
26978;BME280;56314;48.088;11.642;2023-03-18T05:41:33;95156.50;;;5.93;77.77
26978;BME280;56314;48.088;11.642;2023-03-18T05:43:59;95163.47;;;5.92;77.76
26978;BME280;56314;48.088;11.642;2023-03-18T05:46:24;95168.50;;;5.95;77.50
26978;BME280;56314;48.088;11.642;2023-03-18T05:48:50;95162.34;;;5.96;76.37
26978;BME280;56314;48.088;11.642;2023-03-18T05:51:15;95162.09;;;6.01;73.49
26978;BME280;56314;48.088;11.642;2023-03-18T05:53:41;95166.66;;;6.12;73.38
26978;BME280;56314;48.088;11.642;2023-03-18T05:56:06;95169.94;;;6.28;71.54
26978;BME280;56314;48.088;11.642;2023-03-18T05:58:32;95167.25;;;6.30;72.80
26978;BME280;56314;48.088;11.642;2023-03-18T06:01:01;95170.31;;;6.37;74.65
26978;BME280;56314;48.088;11.642;2023-03-18T06:03:26;95179.63;;;6.26;74.40
26978;BME280;56314;48.088;11.642;2023-03-18T06:05:54;95174.69;;;6.22;74.94
26978;BME280;56314;48.088;11.642;2023-03-18T06:08:20;95174.69;;;6.22;74.17
26978;BME280;56314;48.088;11.642;2023-03-18T06:10:46;95171.56;;;6.16;74.68
26978;BME280;56314;48.088;11.642;2023-03-18T06:13:12;95174.97;;;6.31;74.39
26978;BME280;56314;48.088;11.642;2023-03-18T06:15:37;95176.63;;;6.32;74.55
26978;BME280;56314;48.088;11.642;2023-03-18T06:18:03;95176.69;;;6.45;74.44
26978;BME280;56314;48.088;11.642;2023-03-18T06:20:30;95172.31;;;6.46;74.44
26978;BME280;56314;48.088;11.642;2023-03-18T06:22:55;95178.84;;;6.66;72.43
26978;BME280;56314;48.088;11.642;2023-03-18T06:25:21;95175.00;;;6.72;73.10
26978;BME280;56314;48.088;11.642;2023-03-18T06:27:50;95180.94;;;6.74;73.13
26978;BME280;56314;48.088;11.642;2023-03-18T06:30:16;95177.00;;;6.81;71.40
26978;BME280;56314;48.088;11.642;2023-03-18T06:32:42;95181.13;;;6.98;70.47
26978;BME280;56314;48.088;11.642;2023-03-18T06:35:09;95175.69;;;7.01;71.39
26978;BME280;56314;48.088;11.642;2023-03-18T06:37:35;95173.09;;;7.14;70.78
26978;BME280;56314;48.088;11.642;2023-03-18T06:40:01;95175.00;;;7.25;69.82
26978;BME280;56314;48.088;11.642;2023-03-18T06:42:27;95170.59;;;7.38;68.47
26978;BME280;56314;48.088;11.642;2023-03-18T06:44:53;95175.63;;;7.54;68.45
26978;BME280;56314;48.088;11.642;2023-03-18T06:47:20;95175.59;;;7.67;66.70
26978;BME280;56314;48.088;11.642;2023-03-18T06:49:47;95171.06;;;7.82;66.81
26978;BME280;56314;48.088;11.642;2023-03-18T06:52:13;95178.91;;;7.95;65.58
26978;BME280;56314;48.088;11.642;2023-03-18T06:54:38;95175.31;;;8.09;64.70
26978;BME280;56314;48.088;11.642;2023-03-18T06:57:07;95177.78;;;8.24;64.29
26978;BME280;56314;48.088;11.642;2023-03-18T06:59:33;95175.22;;;8.35;63.40
26978;BME280;56314;48.088;11.642;2023-03-18T07:01:59;95169.75;;;8.51;62.07
26978;BME280;56314;48.088;11.642;2023-03-18T07:04:25;95171.94;;;8.57;63.36
26978;BME280;56314;48.088;11.642;2023-03-18T07:06:50;95175.34;;;8.71;62.83
26978;BME280;56314;48.088;11.642;2023-03-18T07:09:17;95166.69;;;8.82;62.47
26978;BME280;56314;48.088;11.642;2023-03-18T07:11:43;95171.47;;;8.88;63.20
26978;BME280;56314;48.088;11.642;2023-03-18T07:14:09;95171.38;;;9.01;60.84
26978;BME280;56314;48.088;11.642;2023-03-18T07:16:35;95171.53;;;9.11;59.80
26978;BME280;56314;48.088;11.642;2023-03-18T07:19:01;95160.97;;;9.23;59.38
26978;BME280;56314;48.088;11.642;2023-03-18T07:21:27;95170.28;;;9.39;59.30
26978;BME280;56314;48.088;11.642;2023-03-18T07:23:53;95171.75;;;9.54;58.23
26978;BME280;56314;48.088;11.642;2023-03-18T07:26:19;95175.09;;;9.68;57.70
26978;BME280;56314;48.088;11.642;2023-03-18T07:28:44;95169.72;;;9.81;56.98
26978;BME280;56314;48.088;11.642;2023-03-18T07:31:10;95178.78;;;9.88;56.51
26978;BME280;56314;48.088;11.642;2023-03-18T07:33:36;95179.13;;;9.95;56.69
26978;BME280;56314;48.088;11.642;2023-03-18T07:36:01;95181.13;;;10.14;55.67
26978;BME280;56314;48.088;11.642;2023-03-18T07:38:26;95176.34;;;10.30;55.36
26978;BME280;56314;48.088;11.642;2023-03-18T07:40:51;95171.22;;;10.52;55.46
26978;BME280;56314;48.088;11.642;2023-03-18T07:43:17;95173.44;;;10.68;54.76
26978;BME280;56314;48.088;11.642;2023-03-18T07:45:42;95174.06;;;10.92;54.17
26978;BME280;56314;48.088;11.642;2023-03-18T07:48:08;95169.75;;;10.91;54.38
26978;BME280;56314;48.088;11.642;2023-03-18T07:50:33;95169.56;;;11.04;53.91
26978;BME280;56314;48.088;11.642;2023-03-18T07:52:59;95160.28;;;11.21;52.95
26978;BME280;56314;48.088;11.642;2023-03-18T07:55:24;95169.72;;;11.24;53.39
26978;BME280;56314;48.088;11.642;2023-03-18T07:57:50;95166.72;;;11.29;53.51
26978;BME280;56314;48.088;11.642;2023-03-18T08:00:16;95169.78;;;11.34;53.89
26978;BME280;56314;48.088;11.642;2023-03-18T08:02:41;95174.25;;;11.43;53.11
26978;BME280;56314;48.088;11.642;2023-03-18T08:05:07;95177.13;;;11.61;53.16
26978;BME280;56314;48.088;11.642;2023-03-18T08:07:33;95177.09;;;11.82;53.37
26978;BME280;56314;48.088;11.642;2023-03-18T08:10:02;95180.13;;;12.09;52.01
26978;BME280;56314;48.088;11.642;2023-03-18T08:12:28;95182.00;;;12.28;51.84
26978;BME280;56314;48.088;11.642;2023-03-18T08:14:55;95178.28;;;12.40;52.50
26978;BME280;56314;48.088;11.642;2023-03-18T08:17:22;95175.00;;;12.58;52.29
26978;BME280;56314;48.088;11.642;2023-03-18T08:19:47;95162.81;;;12.67;51.55
26978;BME280;56314;48.088;11.642;2023-03-18T08:22:13;95173.06;;;12.70;52.01
26978;BME280;56314;48.088;11.642;2023-03-18T08:24:39;95175.00;;;12.77;51.15
26978;BME280;56314;48.088;11.642;2023-03-18T08:27:07;95174.88;;;12.89;50.66
26978;BME280;56314;48.088;11.642;2023-03-18T08:29:33;95182.53;;;13.02;50.00
26978;BME280;56314;48.088;11.642;2023-03-18T08:31:58;95179.06;;;13.21;50.46
26978;BME280;56314;48.088;11.642;2023-03-18T08:34:24;95183.38;;;13.22;49.71
26978;BME280;56314;48.088;11.642;2023-03-18T08:36:49;95175.00;;;13.36;49.37
26978;BME280;56314;48.088;11.642;2023-03-18T08:39:15;95168.75;;;13.57;48.89
26978;BME280;56314;48.088;11.642;2023-03-18T08:41:41;95170.59;;;13.94;47.75
26978;BME280;56314;48.088;11.642;2023-03-18T08:44:07;95164.53;;;14.12;47.25
26978;BME280;56314;48.088;11.642;2023-03-18T08:46:38;95169.72;;;14.31;45.20
26978;BME280;56314;48.088;11.642;2023-03-18T08:49:04;95168.00;;;14.40;44.98
26978;BME280;56314;48.088;11.642;2023-03-18T08:51:30;95158.41;;;14.67;45.11
26978;BME280;56314;48.088;11.642;2023-03-18T08:53:57;95165.09;;;14.89;44.41
26978;BME280;56314;48.088;11.642;2023-03-18T08:56:22;95165.31;;;14.96;44.03
26978;BME280;56314;48.088;11.642;2023-03-18T08:58:49;95161.13;;;15.12;43.44
26978;BME280;56314;48.088;11.642;2023-03-18T09:01:15;95162.41;;;15.44;43.67
26978;BME280;56314;48.088;11.642;2023-03-18T09:03:47;95151.03;;;15.78;42.07
26978;BME280;56314;48.088;11.642;2023-03-18T09:06:12;95159.06;;;15.94;41.72
26978;BME280;56314;48.088;11.642;2023-03-18T09:08:37;95152.81;;;16.38;41.19
26978;BME280;56314;48.088;11.642;2023-03-18T09:11:04;95149.59;;;16.69;40.12
26978;BME280;56314;48.088;11.642;2023-03-18T09:13:29;95147.69;;;17.13;37.11
26978;BME280;56314;48.088;11.642;2023-03-18T09:15:54;95153.66;;;17.15;37.58
26978;BME280;56314;48.088;11.642;2023-03-18T09:18:20;95155.31;;;17.32;36.56
26978;BME280;56314;48.088;11.642;2023-03-18T09:20:47;95154.28;;;17.58;36.04
26978;BME280;56314;48.088;11.642;2023-03-18T09:23:13;95146.34;;;17.66;35.64
26978;BME280;56314;48.088;11.642;2023-03-18T09:25:39;95136.94;;;18.12;36.36
26978;BME280;56314;48.088;11.642;2023-03-18T09:28:07;95132.97;;;18.08;35.54
26978;BME280;56314;48.088;11.642;2023-03-18T09:30:32;95134.19;;;18.37;36.61
26978;BME280;56314;48.088;11.642;2023-03-18T09:32:58;95137.47;;;18.47;34.81
26978;BME280;56314;48.088;11.642;2023-03-18T09:35:24;95136.59;;;18.55;33.76
26978;BME280;56314;48.088;11.642;2023-03-18T09:37:50;95144.19;;;18.66;34.30
26978;BME280;56314;48.088;11.642;2023-03-18T09:40:32;95142.47;;;18.42;35.00
26978;BME280;56314;48.088;11.642;2023-03-18T09:43:08;95141.69;;;18.65;33.92
26978;BME280;56314;48.088;11.642;2023-03-18T09:51:26;95127.63;;;19.11;31.90
26978;BME280;56314;48.088;11.642;2023-03-18T09:53:57;95133.28;;;19.07;32.67
26978;BME280;56314;48.088;11.642;2023-03-18T09:56:29;95129.16;;;19.05;32.85
26978;BME280;56314;48.088;11.642;2023-03-18T10:01:27;95125.75;;;19.73;32.86
26978;BME280;56314;48.088;11.642;2023-03-18T10:04:05;95122.75;;;20.06;31.06
26978;BME280;56314;48.088;11.642;2023-03-18T10:06:36;95124.88;;;20.62;30.44
26978;BME280;56314;48.088;11.642;2023-03-18T10:11:38;95124.16;;;21.83;28.90
26978;BME280;56314;48.088;11.642;2023-03-18T10:16:48;95122.53;;;23.48;25.99
26978;BME280;56314;48.088;11.642;2023-03-18T10:19:15;95110.34;;;23.73;26.01
26978;BME280;56314;48.088;11.642;2023-03-18T10:22:29;95120.19;;;24.19;26.16
26978;BME280;56314;48.088;11.642;2023-03-18T10:28:31;95115.16;;;24.43;23.88
26978;BME280;56314;48.088;11.642;2023-03-18T10:31:26;95112.91;;;24.40;23.33
26978;BME280;56314;48.088;11.642;2023-03-18T10:34:18;95116.22;;;24.35;22.79
26978;BME280;56314;48.088;11.642;2023-03-18T10:36:50;95111.88;;;24.41;22.59
26978;BME280;56314;48.088;11.642;2023-03-18T10:39:22;95119.44;;;23.98;23.75
26978;BME280;56314;48.088;11.642;2023-03-18T10:41:49;95117.31;;;24.14;23.83
26978;BME280;56314;48.088;11.642;2023-03-18T10:46:43;95102.00;;;24.87;22.21
26978;BME280;56314;48.088;11.642;2023-03-18T10:49:15;95099.94;;;24.82;22.17
26978;BME280;56314;48.088;11.642;2023-03-18T10:51:54;95100.06;;;24.55;22.14
26978;BME280;56314;48.088;11.642;2023-03-18T10:54:26;95098.53;;;24.66;23.30
26978;BME280;56314;48.088;11.642;2023-03-18T10:56:56;95095.66;;;24.74;23.15
26978;BME280;56314;48.088;11.642;2023-03-18T10:59:23;95089.63;;;24.79;22.63
26978;BME280;56314;48.088;11.642;2023-03-18T11:01:52;95086.31;;;24.84;23.24
26978;BME280;56314;48.088;11.642;2023-03-18T11:04:21;95084.84;;;24.88;23.04
26978;BME280;56314;48.088;11.642;2023-03-18T11:06:54;95086.66;;;24.94;22.03
26978;BME280;56314;48.088;11.642;2023-03-18T11:09:29;95073.78;;;24.71;22.69
26978;BME280;56314;48.088;11.642;2023-03-18T11:11:56;95070.88;;;24.72;23.67
26978;BME280;56314;48.088;11.642;2023-03-18T11:14:28;95068.69;;;24.95;22.81
26978;BME280;56314;48.088;11.642;2023-03-18T11:17:02;95067.72;;;24.82;22.66
26978;BME280;56314;48.088;11.642;2023-03-18T11:19:37;95067.50;;;24.38;22.53
26978;BME280;56314;48.088;11.642;2023-03-18T11:24:32;95061.91;;;24.40;22.92
26978;BME280;56314;48.088;11.642;2023-03-18T11:27:00;95064.22;;;24.36;23.47
26978;BME280;56314;48.088;11.642;2023-03-18T11:29:30;95070.38;;;24.37;23.92
26978;BME280;56314;48.088;11.642;2023-03-18T11:31:58;95066.78;;;24.11;23.47
26978;BME280;56314;48.088;11.642;2023-03-18T11:34:29;95063.78;;;23.60;23.06
26978;BME280;56314;48.088;11.642;2023-03-18T11:37:04;95054.88;;;23.66;24.05
26978;BME280;56314;48.088;11.642;2023-03-18T11:39:31;95055.72;;;23.80;23.26
26978;BME280;56314;48.088;11.642;2023-03-18T11:41:59;95047.22;;;23.83;23.45
26978;BME280;56314;48.088;11.642;2023-03-18T11:44:32;95050.81;;;23.44;23.74
26978;BME280;56314;48.088;11.642;2023-03-18T11:47:11;95046.88;;;23.53;23.96
26978;BME280;56314;48.088;11.642;2023-03-18T11:49:38;95042.91;;;23.76;23.60
26978;BME280;56314;48.088;11.642;2023-03-18T11:57:34;95032.25;;;23.56;23.99
26978;BME280;56314;48.088;11.642;2023-03-18T12:03:21;95018.66;;;23.44;23.92
26978;BME280;56314;48.088;11.642;2023-03-18T12:08:42;95006.19;;;23.96;23.97
26978;BME280;56314;48.088;11.642;2023-03-18T12:11:13;95002.34;;;23.52;25.02
26978;BME280;56314;48.088;11.642;2023-03-18T12:16:52;95002.59;;;22.97;25.09
26978;BME280;56314;48.088;11.642;2023-03-18T12:22:30;95008.34;;;23.14;25.39
26978;BME280;56314;48.088;11.642;2023-03-18T12:41:47;94995.78;;;23.01;25.50
26978;BME280;56314;48.088;11.642;2023-03-18T12:46:57;94994.97;;;23.07;25.38
26978;BME280;56314;48.088;11.642;2023-03-18T12:49:30;94997.38;;;22.62;25.80
26978;BME280;56314;48.088;11.642;2023-03-18T12:52:10;94997.38;;;22.41;26.90
26978;BME280;56314;48.088;11.642;2023-03-18T12:54:52;94994.28;;;22.44;26.58
26978;BME280;56314;48.088;11.642;2023-03-18T12:57:30;94990.81;;;22.64;26.54
26978;BME280;56314;48.088;11.642;2023-03-18T13:00:00;94995.28;;;22.43;26.57
26978;BME280;56314;48.088;11.642;2023-03-18T13:05:35;94999.50;;;22.73;26.62
26978;BME280;56314;48.088;11.642;2023-03-18T13:11:10;94992.03;;;22.68;26.54
26978;BME280;56314;48.088;11.642;2023-03-18T13:13:43;94991.00;;;22.42;26.64
26978;BME280;56314;48.088;11.642;2023-03-18T13:16:11;94995.84;;;22.25;26.22
26978;BME280;56314;48.088;11.642;2023-03-18T13:18:40;94991.72;;;22.23;27.28
26978;BME280;56314;48.088;11.642;2023-03-18T13:21:12;94991.69;;;22.09;27.24
26978;BME280;56314;48.088;11.642;2023-03-18T13:34:34;94992.69;;;22.08;27.68
26978;BME280;56314;48.088;11.642;2023-03-18T13:42:06;94980.88;;;21.76;27.75
26978;BME280;56314;48.088;11.642;2023-03-18T13:44:40;94978.59;;;21.73;27.92
26978;BME280;56314;48.088;11.642;2023-03-18T13:47:14;94979.16;;;21.61;28.19
26978;BME280;56314;48.088;11.642;2023-03-18T13:49:41;94977.50;;;21.60;28.65
26978;BME280;56314;48.088;11.642;2023-03-18T13:52:22;94972.00;;;21.40;28.11
26978;BME280;56314;48.088;11.642;2023-03-18T13:54:48;94974.16;;;21.23;29.09
26978;BME280;56314;48.088;11.642;2023-03-18T13:59:48;94960.38;;;21.19;29.27
26978;BME280;56314;48.088;11.642;2023-03-18T14:02:40;94970.44;;;21.17;29.49
26978;BME280;56314;48.088;11.642;2023-03-18T14:08:04;94954.00;;;20.85;30.41
26978;BME280;56314;48.088;11.642;2023-03-18T14:10:30;94950.69;;;20.83;29.40
26978;BME280;56314;48.088;11.642;2023-03-18T14:13:24;94951.34;;;20.70;30.58
26978;BME280;56314;48.088;11.642;2023-03-18T14:15:50;94954.09;;;20.55;30.70
26978;BME280;56314;48.088;11.642;2023-03-18T14:18:22;94957.34;;;20.29;30.86
26978;BME280;56314;48.088;11.642;2023-03-18T14:20:52;94952.88;;;19.93;31.55
26978;BME280;56314;48.088;11.642;2023-03-18T14:23:34;94946.91;;;19.91;31.96
26978;BME280;56314;48.088;11.642;2023-03-18T14:26:24;94933.78;;;19.89;31.65
26978;BME280;56314;48.088;11.642;2023-03-18T14:28:56;94950.50;;;19.68;32.31
26978;BME280;56314;48.088;11.642;2023-03-18T14:39:38;94947.59;;;19.18;33.12
26978;BME280;56314;48.088;11.642;2023-03-18T14:42:14;94942.19;;;19.11;33.85